Time;durP1;ratioP1;P1;durP2;ratioP2;P2;SDS_P1;SDS_P2;PMS_P1;PMS_P2;Temp;Humidity;BMP_temperature;BMP_pressure;BME280_temperature;BME280_humidity;BME280_pressure;Samples;Min_cycle;Max_cycle;Signal;HPM_P1;HPM_P2
2021/04/16 00:01:04;;;;;;;40.10;20.37;;;;;;;;;;4331268;33;20768;-57
2021/04/16 00:03:30;;;;;;;38.93;21.23;;;;;;;;;;4331120;33;20241;-57
2021/04/16 00:05:56;;;;;;;33.60;19.67;;;;;;;;;;4330877;33;20265;-57
2021/04/16 00:08:33;;;;;;;30.60;18.50;;;;;;;;;;4330927;33;20686;-58
2021/04/16 00:11:05;;;;;;;29.87;18.63;;;;;;;;;;4331277;33;20286;-58
2021/04/16 00:13:31;;;;;;;25.70;17.33;;;;;;;;;;4331257;33;20211;-58
2021/04/16 00:15:57;;;;;;;30.83;17.07;;;;;;;;;;4330862;33;20346;-57
2021/04/16 00:18:26;;;;;;;25.53;15.47;;;;;;;;;;4330917;33;20549;-57
2021/04/16 00:20:51;;;;;;;20.53;12.93;;;;;;;;;;4331141;33;20227;-55
2021/04/16 00:23:17;;;;;;;22.93;15.53;;;;;;;;;;4331032;33;20312;-56
2021/04/16 00:25:43;;;;;;;29.17;18.60;;;;;;;;;;4317719;33;20262;-56
2021/04/16 00:28:11;;;;;;;29.03;18.67;;;;;;;;;;4331054;33;20627;-55
2021/04/16 00:30:43;;;;;;;27.00;19.30;;;;;;;;;;4330775;33;20226;-57
2021/04/16 00:33:10;;;;;;;29.67;20.10;;;;;;;;;;4330968;33;20218;-58
2021/04/16 00:35:35;;;;;;;30.90;20.03;;;;;;;;;;4330660;33;20258;-57
2021/04/16 00:38:02;;;;;;;26.43;17.63;;;;;;;;;;4330819;33;20206;-58
2021/04/16 00:40:55;;;;;;;28.47;18.03;;;;;;;;;;4330691;33;20214;-58
2021/04/16 00:43:23;;;;;;;31.37;17.93;;;;;;;;;;4327897;33;20227;-58
2021/04/16 00:46:02;;;;;;;37.50;18.23;;;;;;;;;;4330475;33;20283;-58
2021/04/16 00:48:31;;;;;;;34.63;21.00;;;;;;;;;;4330520;33;20249;-57
2021/04/16 00:51:00;;;;;;;40.87;21.80;;;;;;;;;;4330055;33;20646;-58
2021/04/16 00:53:26;;;;;;;43.60;23.10;;;;;;;;;;4330189;33;20599;-58
2021/04/16 00:55:53;;;;;;;44.77;24.17;;;;;;;;;;4330719;33;20227;-58
2021/04/16 00:58:21;;;;;;;41.10;25.33;;;;;;;;;;4330299;33;20233;-57
2021/04/16 01:00:51;;;;;;;43.70;23.97;;;;;;;;;;4330467;33;20357;-58
2021/04/16 01:03:17;;;;;;;37.43;22.70;;;;;;;;;;4330674;33;20274;-58
2021/04/16 01:05:42;;;;;;;41.90;22.70;;;;;;;;;;4329889;33;20294;-58
2021/04/16 01:08:09;;;;;;;43.73;24.07;;;;;;;;;;4330197;33;20191;-57
2021/04/16 01:10:35;;;;;;;41.50;24.63;;;;;;;;;;4330176;33;20239;-58
2021/04/16 01:13:02;;;;;;;36.30;20.93;;;;;;;;;;4330399;33;20238;-58
2021/04/16 01:15:32;;;;;;;33.07;18.03;;;;;;;;;;4330305;33;20216;-59
2021/04/16 01:18:08;;;;;;;29.30;18.17;;;;;;;;;;4330039;33;20325;-58
2021/04/16 01:20:37;;;;;;;27.20;16.67;;;;;;;;;;4330332;33;20287;-58
2021/04/16 01:23:11;;;;;;;30.17;18.33;;;;;;;;;;4330293;33;20204;-59
2021/04/16 01:25:37;;;;;;;28.07;18.43;;;;;;;;;;4330404;33;20630;-58
2021/04/16 01:28:04;;;;;;;27.30;17.73;;;;;;;;;;4329879;33;20616;-58
2021/04/16 01:30:31;;;;;;;30.00;16.73;;;;;;;;;;4329907;33;20226;-58
2021/04/16 01:32:57;;;;;;;34.13;17.43;;;;;;;;;;4329718;33;20349;-58
2021/04/16 01:35:28;;;;;;;28.40;15.90;;;;;;;;;;4330025;33;20227;-59
2021/04/16 01:37:54;;;;;;;31.17;16.67;;;;;;;;;;4330013;33;20660;-58
2021/04/16 01:40:21;;;;;;;25.03;14.83;;;;;;;;;;4329956;33;20514;-59
2021/04/16 01:42:47;;;;;;;17.80;12.23;;;;;;;;;;4330041;33;20195;-59
2021/04/16 01:45:19;;;;;;;19.13;10.93;;;;;;;;;;4329718;33;20246;-59
2021/04/16 01:47:58;;;;;;;12.87;9.47;;;;;;;;;;4329856;33;20219;-60
2021/04/16 01:50:24;;;;;;;17.20;10.63;;;;;;;;;;4329884;33;20271;-59
2021/04/16 01:52:50;;;;;;;14.50;10.17;;;;;;;;;;4329547;33;20195;-59
2021/04/16 01:55:16;;;;;;;15.13;10.03;;;;;;;;;;4329665;33;20285;-60
2021/04/16 01:57:41;;;;;;;16.97;9.30;;;;;;;;;;4329268;33;20838;-59
2021/04/16 02:00:14;;;;;;;10.27;8.00;;;;;;;;;;4329473;33;20211;-59
2021/04/16 02:02:40;;;;;;;12.37;7.80;;;;;;;;;;4328859;33;20637;-60
2021/04/16 02:05:06;;;;;;;15.40;9.10;;;;;;;;;;4329146;33;20282;-59
2021/04/16 02:07:31;;;;;;;10.17;8.20;;;;;;;;;;4329642;33;20262;-59
2021/04/16 02:09:57;;;;;;;14.80;8.23;;;;;;;;;;4329132;33;20310;-58
2021/04/16 02:12:23;;;;;;;18.60;8.90;;;;;;;;;;4329501;33;20376;-58
2021/04/16 02:14:51;;;;;;;12.73;9.90;;;;;;;;;;4328005;33;20275;-58
2021/04/16 02:17:24;;;;;;;21.70;14.23;;;;;;;;;;4329147;33;20243;-59
2021/04/16 02:19:51;;;;;;;28.80;17.47;;;;;;;;;;4329419;33;20572;-59
2021/04/16 02:22:19;;;;;;;25.63;16.10;;;;;;;;;;4329334;33;20269;-59
2021/04/16 02:24:45;;;;;;;36.13;24.40;;;;;;;;;;4328850;33;20325;-59
2021/04/16 02:27:12;;;;;;;37.33;24.20;;;;;;;;;;4329409;33;20266;-60
2021/04/16 02:29:38;;;;;;;36.63;23.00;;;;;;;;;;4315351;33;20813;-60
2021/04/16 02:32:05;;;;;;;40.17;25.27;;;;;;;;;;4328977;33;20317;-59
2021/04/16 02:34:30;;;;;;;35.07;24.20;;;;;;;;;;4328754;33;20199;-60
2021/04/16 02:37:01;;;;;;;35.47;24.30;;;;;;;;;;4328833;33;20261;-60
2021/04/16 02:39:27;;;;;;;32.77;23.37;;;;;;;;;;4328895;33;20199;-60
2021/04/16 02:41:53;;;;;;;32.60;21.83;;;;;;;;;;4328959;33;20278;-58
2021/04/16 02:44:19;;;;;;;29.87;17.23;;;;;;;;;;4328689;33;20199;-59
2021/04/16 02:46:45;;;;;;;25.93;13.93;;;;;;;;;;4328885;33;20270;-60
2021/04/16 02:49:11;;;;;;;35.63;15.90;;;;;;;;;;4328912;33;20229;-60
2021/04/16 02:51:37;;;;;;;38.37;22.53;;;;;;;;;;4329092;33;20321;-60
2021/04/16 02:54:03;;;;;;;31.13;19.47;;;;;;;;;;4328646;33;20262;-60
2021/04/16 02:56:28;;;;;;;23.47;16.43;;;;;;;;;;4315763;33;20511;-60
2021/04/16 02:58:56;;;;;;;27.73;13.30;;;;;;;;;;4328778;33;20245;-60
2021/04/16 03:01:21;;;;;;;25.47;12.43;;;;;;;;;;4315964;33;20288;-60
2021/04/16 03:03:47;;;;;;;27.43;15.37;;;;;;;;;;4328692;33;20634;-60
2021/04/16 03:06:12;;;;;;;21.57;12.33;;;;;;;;;;4328424;33;20239;-59
2021/04/16 03:08:38;;;;;;;19.23;11.90;;;;;;;;;;4328601;33;20229;-59
2021/04/16 03:11:08;;;;;;;17.97;11.10;;;;;;;;;;4328947;33;20316;-59
2021/04/16 03:13:34;;;;;;;23.50;15.57;;;;;;;;;;4328243;33;20667;-59
2021/04/16 03:16:00;;;;;;;26.43;15.50;;;;;;;;;;4328924;33;20231;-59
2021/04/16 03:18:26;;;;;;;37.13;18.83;;;;;;;;;;4328472;33;20207;-60
2021/04/16 03:20:52;;;;;;;37.27;18.50;;;;;;;;;;4328415;33;20234;-60
2021/04/16 03:23:17;;;;;;;38.37;20.60;;;;;;;;;;4327297;33;20696;-59
2021/04/16 03:25:43;;;;;;;61.53;32.80;;;;;;;;;;4327629;33;20290;-59
2021/04/16 03:28:09;;;;;;;64.33;31.20;;;;;;;;;;4328929;33;20198;-60
2021/04/16 03:30:35;;;;;;;51.63;25.53;;;;;;;;;;4328636;33;20253;-60
2021/04/16 03:33:01;;;;;;;39.47;22.47;;;;;;;;;;4328869;33;20270;-60
2021/04/16 03:35:26;;;;;;;40.37;19.97;;;;;;;;;;4328832;33;20619;-60
2021/04/16 03:37:52;;;;;;;28.83;17.13;;;;;;;;;;4328636;33;20614;-59
2021/04/16 03:40:22;;;;;;;56.67;31.03;;;;;;;;;;4328702;33;20332;-60
2021/04/16 03:42:48;;;;;;;58.07;34.17;;;;;;;;;;4328970;33;20266;-60
2021/04/16 03:45:14;;;;;;;57.20;34.43;;;;;;;;;;4327368;33;20328;-59
2021/04/16 03:47:44;;;;;;;75.63;41.80;;;;;;;;;;4328567;33;20206;-60
2021/04/16 03:50:13;;;;;;;71.13;43.97;;;;;;;;;;4328335;33;20219;-59
2021/04/16 03:52:38;;;;;;;78.87;39.13;;;;;;;;;;4328812;33;20269;-59
2021/04/16 03:55:04;;;;;;;39.77;25.07;;;;;;;;;;4328722;33;20255;-60
2021/04/16 03:57:30;;;;;;;26.70;19.40;;;;;;;;;;4315199;33;20376;-60
2021/04/16 03:59:57;;;;;;;33.00;18.87;;;;;;;;;;4328221;33;20253;-59
2021/04/16 04:02:24;;;;;;;37.00;20.17;;;;;;;;;;4315020;33;20241;-60
2021/04/16 04:04:49;;;;;;;38.70;20.60;;;;;;;;;;4327959;33;20333;-59
2021/04/16 04:07:15;;;;;;;36.13;21.23;;;;;;;;;;4328607;33;20586;-59
2021/04/16 04:09:40;;;;;;;33.63;21.20;;;;;;;;;;4327936;33;20319;-60
2021/04/16 04:12:06;;;;;;;35.57;21.80;;;;;;;;;;4328350;33;20793;-60
2021/04/16 04:14:32;;;;;;;58.43;27.47;;;;;;;;;;4315093;33;20281;-60
2021/04/16 04:17:03;;;;;;;106.53;50.50;;;;;;;;;;4328279;33;20273;-60
2021/04/16 04:19:30;;;;;;;150.07;69.93;;;;;;;;;;4328061;33;20360;-59
2021/04/16 04:21:58;;;;;;;149.00;69.90;;;;;;;;;;4327334;33;20212;-59
2021/04/16 04:24:24;;;;;;;145.50;64.47;;;;;;;;;;4328230;33;20459;-60
2021/04/16 04:26:50;;;;;;;145.33;67.53;;;;;;;;;;4331150;33;20270;-59
2021/04/16 04:29:18;;;;;;;144.50;66.53;;;;;;;;;;4329465;33;20254;-60
2021/04/16 04:31:47;;;;;;;134.23;61.57;;;;;;;;;;4330663;33;20270;-60
2021/04/16 04:34:22;;;;;;;132.40;60.03;;;;;;;;;;4330958;33;20203;-59
2021/04/16 04:36:50;;;;;;;141.27;65.60;;;;;;;;;;4330746;33;20639;-60
2021/04/16 04:39:16;;;;;;;131.87;63.33;;;;;;;;;;4330387;33;20203;-59
2021/04/16 04:41:42;;;;;;;146.10;64.70;;;;;;;;;;4329366;33;20306;-59
2021/04/16 04:44:08;;;;;;;236.40;102.43;;;;;;;;;;4330220;33;20624;-59
2021/04/16 04:46:35;;;;;;;410.50;163.03;;;;;;;;;;4330584;33;20286;-60
2021/04/16 04:49:00;;;;;;;428.60;181.10;;;;;;;;;;4330313;33;20286;-59
2021/04/16 04:51:26;;;;;;;472.47;204.37;;;;;;;;;;4330489;33;20234;-61
2021/04/16 04:53:52;;;;;;;557.67;261.50;;;;;;;;;;4316749;33;20250;-60
2021/04/16 04:56:17;;;;;;;702.03;338.53;;;;;;;;;;4330329;33;20568;-59
2021/04/16 04:58:43;;;;;;;579.63;269.03;;;;;;;;;;4326382;33;20322;-60
2021/04/16 05:01:09;;;;;;;568.70;272.43;;;;;;;;;;4314183;33;20261;-59
2021/04/16 05:03:34;;;;;;;581.33;286.17;;;;;;;;;;4315216;33;20233;-59
2021/04/16 05:06:00;;;;;;;629.10;300.17;;;;;;;;;;4315026;33;20571;-60
2021/04/16 05:08:25;;;;;;;578.93;270.70;;;;;;;;;;4315010;33;20227;-59
2021/04/16 05:10:51;;;;;;;546.87;253.60;;;;;;;;;;4315390;33;20239;-60
2021/04/16 05:13:16;;;;;;;576.63;272.37;;;;;;;;;;4315170;33;20294;-59
2021/04/16 05:15:42;;;;;;;596.80;282.27;;;;;;;;;;4315308;33;20215;-58
2021/04/16 05:18:07;;;;;;;536.73;245.67;;;;;;;;;;4321001;33;20289;-59
2021/04/16 05:20:33;;;;;;;529.60;237.57;;;;;;;;;;4329176;33;20441;-60
2021/04/16 05:22:58;;;;;;;447.50;191.73;;;;;;;;;;4329703;33;20819;-60
2021/04/16 05:25:24;;;;;;;288.13;119.03;;;;;;;;;;4328415;33;20309;-59
2021/04/16 05:27:49;;;;;;;262.03;111.77;;;;;;;;;;4328576;33;20341;-59
2021/04/16 05:30:15;;;;;;;249.47;103.57;;;;;;;;;;4329118;33;20227;-60
2021/04/16 05:32:41;;;;;;;222.63;99.07;;;;;;;;;;4329251;33;20277;-59
2021/04/16 05:35:08;;;;;;;176.63;81.43;;;;;;;;;;4329130;33;20252;-59
2021/04/16 05:37:34;;;;;;;157.27;72.57;;;;;;;;;;4329661;33;20335;-59
2021/04/16 05:39:59;;;;;;;137.47;69.83;;;;;;;;;;4329369;33;20231;-59
2021/04/16 05:42:25;;;;;;;120.57;59.47;;;;;;;;;;4329463;33;20318;-59
2021/04/16 05:44:50;;;;;;;128.80;60.50;;;;;;;;;;4329071;33;20684;-59
2021/04/16 05:47:17;;;;;;;136.00;66.33;;;;;;;;;;4329160;33;20343;-59
2021/04/16 05:49:42;;;;;;;148.63;72.33;;;;;;;;;;4329353;33;20215;-60
2021/04/16 05:52:08;;;;;;;191.17;78.90;;;;;;;;;;4329746;33;20650;-59
2021/04/16 05:54:33;;;;;;;186.83;81.93;;;;;;;;;;4329041;33;20281;-59
2021/04/16 05:56:59;;;;;;;185.43;83.87;;;;;;;;;;4327777;33;20380;-59
2021/04/16 05:59:24;;;;;;;204.47;92.43;;;;;;;;;;4329055;33;20534;-58
2021/04/16 06:01:50;;;;;;;248.33;105.23;;;;;;;;;;4328739;33;20286;-59
2021/04/16 06:04:19;;;;;;;248.33;107.17;;;;;;;;;;4328668;33;20199;-59
2021/04/16 06:06:44;;;;;;;250.47;109.47;;;;;;;;;;4328879;33;20223;-59
2021/04/16 06:09:10;;;;;;;242.47;112.93;;;;;;;;;;4328934;33;20207;-59
2021/04/16 06:11:36;;;;;;;251.47;113.07;;;;;;;;;;4329354;33;20250;-59
2021/04/16 06:14:03;;;;;;;231.50;108.20;;;;;;;;;;4328986;33;20261;-59
2021/04/16 06:16:28;;;;;;;226.93;100.57;;;;;;;;;;4329103;33;20223;-59
2021/04/16 06:18:53;;;;;;;216.63;96.33;;;;;;;;;;4328605;33;20282;-59
2021/04/16 06:21:19;;;;;;;217.73;96.77;;;;;;;;;;4328748;33;20277;-59
2021/04/16 06:23:44;;;;;;;210.20;96.73;;;;;;;;;;4328831;33;20211;-58
2021/04/16 06:26:10;;;;;;;234.13;95.97;;;;;;;;;;4315411;33;20265;-59
2021/04/16 06:28:35;;;;;;;183.80;89.47;;;;;;;;;;4327202;33;20261;-58
2021/04/16 06:31:01;;;;;;;169.73;84.17;;;;;;;;;;4328875;33;20687;-59
2021/04/16 06:33:31;;;;;;;168.03;79.90;;;;;;;;;;4328048;33;20221;-59
2021/04/16 06:36:05;;;;;;;158.70;78.67;;;;;;;;;;4328712;33;20227;-59
2021/04/16 06:38:34;;;;;;;156.40;71.87;;;;;;;;;;4328669;33;20566;-59
2021/04/16 06:41:02;;;;;;;147.13;65.17;;;;;;;;;;4328557;33;20627;-59
2021/04/16 06:43:49;;;;;;;146.60;67.93;;;;;;;;;;4328672;33;20330;-59
2021/04/16 06:46:22;;;;;;;163.63;73.90;;;;;;;;;;4315336;33;20608;-59
2021/04/16 06:48:48;;;;;;;113.70;54.00;;;;;;;;;;4328295;33;20319;-59
2021/04/16 06:51:14;;;;;;;97.07;44.83;;;;;;;;;;4327559;33;20320;-58
2021/04/16 06:53:45;;;;;;;66.17;30.27;;;;;;;;;;4328407;33;20309;-59
2021/04/16 06:56:18;;;;;;;72.77;37.67;;;;;;;;;;4328732;33;20671;-58
2021/04/16 06:58:55;;;;;;;13.43;8.17;;;;;;;;;;4328206;33;20212;-57
2021/04/16 07:01:32;;;;;;;35.67;15.57;;;;;;;;;;4314898;33;20268;-59
2021/04/16 07:04:27;;;;;;;21.50;9.97;;;;;;;;;;4328703;33;20715;-57
2021/04/16 07:06:56;;;;;;;17.93;8.77;;;;;;;;;;4324504;33;20390;-58
2021/04/16 07:09:31;;;;;;;12.63;7.90;;;;;;;;;;4328170;33;20207;-59
2021/04/16 07:12:11;;;;;;;20.13;9.90;;;;;;;;;;4328422;33;20302;-58
2021/04/16 07:14:49;;;;;;;18.80;8.40;;;;;;;;;;4314992;33;20219;-58
2021/04/16 07:17:20;;;;;;;11.33;6.37;;;;;;;;;;4328234;33;20226;-58
2021/04/16 07:19:45;;;;;;;9.23;6.00;;;;;;;;;;4327892;33;20222;-59
2021/04/16 07:22:24;;;;;;;9.43;5.87;;;;;;;;;;4327956;33;20277;-58
2021/04/16 07:24:51;;;;;;;8.30;5.80;;;;;;;;;;4328047;33;20360;-58
2021/04/16 07:27:25;;;;;;;13.53;5.73;;;;;;;;;;4328380;33;20203;-58
2021/04/16 07:29:54;;;;;;;8.63;4.20;;;;;;;;;;4327619;33;20211;-58
2021/04/16 07:32:25;;;;;;;13.63;6.50;;;;;;;;;;4314258;33;20227;-58
2021/04/16 07:34:50;;;;;;;9.00;5.17;;;;;;;;;;4314185;33;20242;-53
2021/04/16 07:37:39;;;;;;;8.37;4.30;;;;;;;;;;4327977;33;20273;-53
2021/04/16 07:40:07;;;;;;;5.80;3.80;;;;;;;;;;4328463;33;20208;-51
2021/04/16 07:42:47;;;;;;;8.33;5.33;;;;;;;;;;4328268;33;20241;-54
2021/04/16 07:45:24;;;;;;;13.13;4.73;;;;;;;;;;4328210;33;20215;-53
2021/04/16 07:47:53;;;;;;;11.63;5.43;;;;;;;;;;4327576;33;20343;-53
2021/04/16 07:50:32;;;;;;;7.03;4.33;;;;;;;;;;4314178;33;20341;-53
2021/04/16 07:52:58;;;;;;;8.37;5.53;;;;;;;;;;4326292;33;20282;-54
2021/04/16 07:55:32;;;;;;;11.00;5.97;;;;;;;;;;4328298;33;20312;-53
2021/04/16 07:58:03;;;;;;;14.80;8.00;;;;;;;;;;4327990;33;20905;-53
2021/04/16 08:00:39;;;;;;;10.20;5.67;;;;;;;;;;4330165;33;20215;-53
2021/04/16 08:03:18;;;;;;;8.67;5.03;;;;;;;;;;4317713;33;20276;-53
2021/04/16 08:05:58;;;;;;;15.23;5.17;;;;;;;;;;4330830;33;20359;-53
2021/04/16 08:08:28;;;;;;;5.73;3.87;;;;;;;;;;4330724;33;20332;-52
2021/04/16 08:11:05;;;;;;;6.70;4.43;;;;;;;;;;4330626;33;20245;-53
2021/04/16 08:13:35;;;;;;;6.87;4.43;;;;;;;;;;4330387;33;20229;-52
2021/04/16 08:16:19;;;;;;;6.17;4.10;;;;;;;;;;4330266;33;20309;-53
2021/04/16 08:19:01;;;;;;;14.77;5.30;;;;;;;;;;4330085;33;20242;-53
2021/04/16 08:21:31;;;;;;;7.07;4.57;;;;;;;;;;4330510;33;20633;-53
2021/04/16 08:24:06;;;;;;;11.20;4.33;;;;;;;;;;4329720;33;20266;-52
2021/04/16 08:26:41;;;;;;;6.73;4.37;;;;;;;;;;4329757;33;20245;-53
2021/04/16 08:29:18;;;;;;;5.37;3.90;;;;;;;;;;4329803;33;20206;-52
2021/04/16 08:31:53;;;;;;;4.13;3.43;;;;;;;;;;4329852;33;20254;-53
2021/04/16 08:34:23;;;;;;;8.33;4.53;;;;;;;;;;4329069;33;20504;-53
2021/04/16 08:36:49;;;;;;;7.80;4.10;;;;;;;;;;4330159;33;20195;-52
2021/04/16 08:39:31;;;;;;;11.33;5.43;;;;;;;;;;4329923;33;20364;-53
2021/04/16 08:42:09;;;;;;;9.33;4.63;;;;;;;;;;4330082;33;20221;-53
2021/04/16 08:44:43;;;;;;;7.57;3.73;;;;;;;;;;4329899;33;20229;-52
2021/04/16 08:47:22;;;;;;;6.00;4.50;;;;;;;;;;4330278;33;20269;-52
2021/04/16 08:49:51;;;;;;;9.43;3.73;;;;;;;;;;4330000;33;20314;-52
2021/04/16 08:52:25;;;;;;;13.40;4.47;;;;;;;;;;4329874;33;20266;-54
2021/04/16 08:54:51;;;;;;;7.73;4.90;;;;;;;;;;4329728;33;20207;-53
2021/04/16 08:57:23;;;;;;;6.53;4.37;;;;;;;;;;4330094;33;20218;-53
2021/04/16 09:00:04;;;;;;;7.40;4.07;;;;;;;;;;4329786;33;20273;-52
2021/04/16 09:02:36;;;;;;;4.83;3.10;;;;;;;;;;4330179;33;20221;-53
2021/04/16 09:05:16;;;;;;;4.40;3.40;;;;;;;;;;4329723;33;20231;-53
2021/04/16 09:07:45;;;;;;;12.60;3.97;;;;;;;;;;4330224;33;20199;-53
2021/04/16 09:10:14;;;;;;;7.43;4.60;;;;;;;;;;4329317;33;20540;-53
2021/04/16 09:12:39;;;;;;;13.03;4.43;;;;;;;;;;4329872;33;20607;-53
2021/04/16 09:15:25;;;;;;;11.03;4.73;;;;;;;;;;4329521;33;20219;-53
2021/04/16 09:17:53;;;;;;;5.20;3.40;;;;;;;;;;4322004;33;20265;-53
2021/04/16 09:20:32;;;;;;;8.27;4.00;;;;;;;;;;4329540;33;20286;-54
2021/04/16 09:22:58;;;;;;;8.23;3.80;;;;;;;;;;4329428;33;20317;-54
2021/04/16 09:25:29;;;;;;;5.53;4.10;;;;;;;;;;4329244;33;20687;-51
2021/04/16 09:28:15;;;;;;;18.63;11.43;;;;;;;;;;4329410;33;20273;-52
2021/04/16 09:30:42;;;;;;;13.07;8.07;;;;;;;;;;4329678;33;20245;-53
2021/04/16 09:33:48;;;;;;;10.03;4.47;;;;;;;;;;4329636;33;20230;-52
2021/04/16 09:36:26;;;;;;;12.87;9.77;;;;;;;;;;4329386;33;20652;-53
2021/04/16 09:38:51;;;;;;;15.80;9.33;;;;;;;;;;4329218;33;20218;-53
2021/04/16 09:41:20;;;;;;;12.43;8.70;;;;;;;;;;4328988;33;20227;-52
2021/04/16 09:43:53;;;;;;;7.03;3.90;;;;;;;;;;4328941;33;20265;-54
2021/04/16 09:46:45;;;;;;;9.03;3.70;;;;;;;;;;4328895;33;20718;-53
2021/04/16 09:49:34;;;;;;;15.43;6.07;;;;;;;;;;4328898;33;20207;-52
2021/04/16 09:52:34;;;;;;;8.80;5.93;;;;;;;;;;4329522;33;20208;-52
2021/04/16 09:55:00;;;;;;;5.70;4.27;;;;;;;;;;4329534;33;20220;-58
2021/04/16 09:57:40;;;;;;;9.83;4.83;;;;;;;;;;4329434;33;20303;-57
2021/04/16 10:00:36;;;;;;;15.90;8.07;;;;;;;;;;4329380;33;20350;-57
2021/04/16 10:03:19;;;;;;;6.20;4.10;;;;;;;;;;4328977;33;20526;-57
2021/04/16 10:05:45;;;;;;;16.73;7.40;;;;;;;;;;4315943;33;20325;-59
2021/04/16 10:08:29;;;;;;;9.87;4.10;;;;;;;;;;4329108;33;20702;-56
2021/04/16 10:11:03;;;;;;;6.40;4.27;;;;;;;;;;4329509;33;20260;-57
2021/04/16 10:13:34;;;;;;;6.27;3.57;;;;;;;;;;4329243;33;20229;-58
2021/04/16 10:16:00;;;;;;;7.23;3.50;;;;;;;;;;4315877;33;20235;-57
2021/04/16 10:18:40;;;;;;;14.50;5.67;;;;;;;;;;4328034;33;20282;-57
2021/04/16 10:21:24;;;;;;;32.00;15.73;;;;;;;;;;4329571;33;20230;-57
2021/04/16 10:24:07;;;;;;;16.27;6.57;;;;;;;;;;4328407;33;20192;-58
2021/04/16 11:10:21;;;;;;;5.33;3.43;;;;;;;;;;4328124;33;20333;-57
2021/04/16 12:39:47;;;;;;;14.70;5.47;;;;;;;;;;4330954;33;20246;-57
2021/04/16 12:42:13;;;;;;;5.83;4.33;;;;;;;;;;4331106;33;20279;-57
2021/04/16 12:44:47;;;;;;;12.73;6.40;;;;;;;;;;4330911;33;20249;-57
2021/04/16 12:47:17;;;;;;;11.53;5.30;;;;;;;;;;4330205;33;20183;-57
2021/04/16 12:49:43;;;;;;;26.80;11.63;;;;;;;;;;4317301;33;20301;-58
2021/04/16 12:52:08;;;;;;;32.23;20.33;;;;;;;;;;4330908;33;20684;-57
2021/04/16 12:54:38;;;;;;;7.13;3.80;;;;;;;;;;4330192;33;20312;-57
2021/04/16 12:57:05;;;;;;;4.70;3.40;;;;;;;;;;4329255;33;20215;-57
2021/04/16 12:59:30;;;;;;;17.70;10.13;;;;;;;;;;4330498;33;20322;-57
2021/04/16 13:01:56;;;;;;;24.03;13.97;;;;;;;;;;4330670;33;20671;-57
2021/04/16 13:04:25;;;;;;;8.13;4.43;;;;;;;;;;4330558;33;20210;-56
2021/04/16 13:06:53;;;;;;;19.60;7.23;;;;;;;;;;4330165;33;20645;-58
2021/04/16 13:09:20;;;;;;;13.57;6.93;;;;;;;;;;4330139;33;20199;-57
2021/04/16 13:11:49;;;;;;;17.03;8.03;;;;;;;;;;4330829;33;20216;-60
2021/04/16 13:14:15;;;;;;;21.93;11.10;;;;;;;;;;4317405;33;20719;-58
2021/04/16 13:16:40;;;;;;;17.10;9.87;;;;;;;;;;4329780;33;20328;-57
2021/04/16 13:19:17;;;;;;;16.30;6.77;;;;;;;;;;4329835;33;20199;-57
2021/04/16 13:21:42;;;;;;;10.83;5.20;;;;;;;;;;4330092;33;20187;-57
2021/04/16 13:24:10;;;;;;;15.23;6.93;;;;;;;;;;4316355;33;20368;-58
2021/04/16 13:26:37;;;;;;;7.83;4.73;;;;;;;;;;4316900;33;20288;-57
2021/04/16 13:29:03;;;;;;;9.07;5.17;;;;;;;;;;4329599;33;20229;-57
2021/04/16 13:31:35;;;;;;;8.10;3.30;;;;;;;;;;4329162;33;20250;-57
2021/04/16 13:34:02;;;;;;;10.27;5.13;;;;;;;;;;4328324;33;20257;-57
2021/04/16 13:36:33;;;;;;;10.87;4.47;;;;;;;;;;4329848;33;20579;-57
2021/04/16 13:39:00;;;;;;;11.93;6.47;;;;;;;;;;4329817;33;20449;-57
2021/04/16 13:41:26;;;;;;;11.97;4.20;;;;;;;;;;4329968;33;20741;-57
2021/04/16 13:43:53;;;;;;;8.00;4.37;;;;;;;;;;4329931;33;20203;-57
2021/04/16 13:46:23;;;;;;;6.77;3.27;;;;;;;;;;4329720;33;20692;-58
2021/04/16 13:48:49;;;;;;;18.37;10.10;;;;;;;;;;4329671;33;20250;-58
2021/04/16 13:51:16;;;;;;;8.67;5.03;;;;;;;;;;4329553;33;20227;-58
2021/04/16 13:53:42;;;;;;;5.50;3.17;;;;;;;;;;4329741;33;20228;-58
2021/04/16 13:56:07;;;;;;;7.73;3.43;;;;;;;;;;4329770;33;20345;-58
2021/04/16 13:58:33;;;;;;;12.67;3.43;;;;;;;;;;4325713;33;20258;-57
2021/04/16 14:00:59;;;;;;;12.97;4.47;;;;;;;;;;4329540;33;20238;-57
2021/04/16 14:03:40;;;;;;;13.63;4.00;;;;;;;;;;4329691;33;20340;-56
2021/04/16 14:06:17;;;;;;;8.67;3.60;;;;;;;;;;4328890;33;20348;-57
2021/04/16 14:08:55;;;;;;;6.00;4.03;;;;;;;;;;4329243;33;20339;-58
2021/04/16 14:11:21;;;;;;;12.47;4.00;;;;;;;;;;4329189;33;20211;-57
2021/04/16 14:13:47;;;;;;;12.80;3.83;;;;;;;;;;4329201;33;20268;-57
2021/04/16 14:16:31;;;;;;;7.70;3.87;;;;;;;;;;4329475;33;20222;-58
2021/04/16 14:19:00;;;;;;;9.43;4.97;;;;;;;;;;4328850;33;20274;-57
2021/04/16 14:21:26;;;;;;;5.70;4.00;;;;;;;;;;4329308;33;20238;-58
2021/04/16 14:23:52;;;;;;;10.50;5.77;;;;;;;;;;4329072;33;20313;-58
2021/04/16 14:26:19;;;;;;;8.57;4.07;;;;;;;;;;4329263;33;20708;-57
2021/04/16 14:28:45;;;;;;;5.20;3.70;;;;;;;;;;4315714;33;20317;-57
2021/04/16 14:31:12;;;;;;;8.57;4.77;;;;;;;;;;4329191;33;20580;-57
2021/04/16 14:33:39;;;;;;;7.77;4.13;;;;;;;;;;4328889;33;20269;-58
2021/04/16 14:36:06;;;;;;;10.23;3.93;;;;;;;;;;4329399;33;20238;-58
2021/04/16 14:38:32;;;;;;;6.80;3.83;;;;;;;;;;4329057;33;20313;-58
2021/04/16 14:40:58;;;;;;;6.30;3.10;;;;;;;;;;4329031;33;20247;-58
2021/04/16 14:43:25;;;;;;;9.83;3.63;;;;;;;;;;4329430;33;20250;-58
2021/04/16 14:45:53;;;;;;;5.90;2.93;;;;;;;;;;4329079;33;20218;-58
2021/04/16 14:48:20;;;;;;;7.50;3.53;;;;;;;;;;4328623;33;20238;-59
2021/04/16 14:50:45;;;;;;;10.53;3.47;;;;;;;;;;4328932;33;20286;-58
2021/04/16 14:53:22;;;;;;;25.60;15.87;;;;;;;;;;4328881;33;20389;-58
2021/04/16 14:55:48;;;;;;;23.67;13.37;;;;;;;;;;4329035;33;20312;-58
2021/04/16 14:58:20;;;;;;;17.23;11.07;;;;;;;;;;4328636;33;20196;-58
2021/04/16 15:00:46;;;;;;;57.13;35.03;;;;;;;;;;4328805;33;20712;-58
2021/04/16 15:03:11;;;;;;;17.00;8.50;;;;;;;;;;4328764;33;20222;-58
2021/04/16 15:05:37;;;;;;;10.77;6.00;;;;;;;;;;4328662;33;20322;-58
2021/04/16 15:08:10;;;;;;;10.73;7.23;;;;;;;;;;4328792;33;20249;-58
2021/04/16 15:10:42;;;;;;;17.87;7.33;;;;;;;;;;4327689;33;20264;-58
2021/04/16 15:13:11;;;;;;;11.50;5.87;;;;;;;;;;4328900;33;20203;-58
2021/04/16 15:15:39;;;;;;;6.40;3.57;;;;;;;;;;4328465;33;20560;-58
2021/04/16 15:18:12;;;;;;;8.33;4.37;;;;;;;;;;4328825;33;20336;-58
2021/04/16 15:20:40;;;;;;;15.67;4.33;;;;;;;;;;4328450;33;20294;-58
2021/04/16 15:23:08;;;;;;;15.57;4.57;;;;;;;;;;4328366;33;20214;-59
2021/04/16 15:25:39;;;;;;;14.33;8.70;;;;;;;;;;4328430;33;20629;-58
2021/04/16 15:28:22;;;;;;;9.90;7.00;;;;;;;;;;4327284;33;20223;-58
2021/04/16 15:30:50;;;;;;;12.63;7.90;;;;;;;;;;4328754;33;20629;-57
2021/04/16 15:48:07;;;;;;;18.47;4.93;;;;;;;;;;4328148;33;20203;-57
2021/04/16 15:50:54;;;;;;;15.77;5.90;;;;;;;;;;4328517;33;20227;-56
2021/04/16 15:53:20;;;;;;;16.40;5.03;;;;;;;;;;4328554;33;20196;-56
2021/04/16 15:55:46;;;;;;;8.13;5.23;;;;;;;;;;4328616;33;20219;-57
2021/04/16 15:58:19;;;;;;;10.70;5.00;;;;;;;;;;4328371;33;20253;-57
2021/04/16 16:00:47;;;;;;;9.37;5.50;;;;;;;;;;4328440;33;20392;-57
2021/04/16 16:03:13;;;;;;;18.23;7.40;;;;;;;;;;4328522;33;20231;-58
2021/04/16 16:05:41;;;;;;;14.40;8.80;;;;;;;;;;4328316;33;20231;-57
2021/04/16 16:08:07;;;;;;;16.67;7.73;;;;;;;;;;4328625;33;20227;-57
2021/04/16 16:10:33;;;;;;;11.17;6.93;;;;;;;;;;4328439;33;20230;-58
2021/04/16 16:13:02;;;;;;;11.47;6.63;;;;;;;;;;4328509;33;20215;-57
2021/04/16 16:15:34;;;;;;;10.50;6.67;;;;;;;;;;4327192;33;20252;-57
2021/04/16 16:18:03;;;;;;;16.80;6.63;;;;;;;;;;4328283;33;20629;-58
2021/04/16 16:20:31;;;;;;;13.83;7.77;;;;;;;;;;4328665;33;20736;-57
2021/04/16 16:22:59;;;;;;;22.40;11.00;;;;;;;;;;4331185;33;20337;-57
2021/04/16 16:25:25;;;;;;;13.67;8.93;;;;;;;;;;4331316;33;20317;-58
2021/04/16 16:27:51;;;;;;;18.60;9.70;;;;;;;;;;4329647;33;20363;-58
2021/04/16 16:30:21;;;;;;;12.80;6.70;;;;;;;;;;4330840;33;20249;-58
2021/04/16 16:32:47;;;;;;;11.90;7.23;;;;;;;;;;4330674;33;20361;-57
2021/04/16 16:35:18;;;;;;;274.53;145.87;;;;;;;;;;4330928;33;20230;-58
2021/04/16 16:37:43;;;;;;;35.23;18.93;;;;;;;;;;4330464;33;20600;-57
2021/04/16 16:40:12;;;;;;;47.13;33.17;;;;;;;;;;4317451;33;20227;-52
2021/04/16 16:42:44;;;;;;;50.03;30.37;;;;;;;;;;4330876;33;20257;-52
2021/04/16 16:45:14;;;;;;;50.40;34.17;;;;;;;;;;4330757;33;20594;-52
2021/04/16 16:47:39;;;;;;;42.30;25.33;;;;;;;;;;4330941;33;20214;-53
2021/04/16 16:50:08;;;;;;;57.23;37.13;;;;;;;;;;4330664;33;20293;-52
2021/04/16 16:52:33;;;;;;;46.90;30.00;;;;;;;;;;4329534;33;20231;-53
2021/04/16 16:54:59;;;;;;;34.40;21.77;;;;;;;;;;4330749;33;20234;-53
2021/04/16 16:57:27;;;;;;;29.70;19.27;;;;;;;;;;4317202;33;20721;-57
2021/04/16 16:59:54;;;;;;;42.40;23.30;;;;;;;;;;4330568;33;20270;-58
2021/04/16 17:02:20;;;;;;;33.93;16.87;;;;;;;;;;4330354;33;20270;-58